Página principal
METAR-TAF:

METAR-TAF

Aeroportos :

Duchambe, Tadjiquistão

latitude: 38-33N, longitude: 068-47E, altura: 803 m

Observação actual do tempo

O boletim foi feito há 41 minutos, às 10:00 UTC
Vento 8 kt de sudeste, variando entre este e sudoeste
Temperatura 40°C
Humidade 15%
Pressão 1001 hPa
Visibilidade 10 km ou mais

METAR: UTDD 201000Z 13004MPS 090V230 9999 NSC 40/08 Q1001 R09/D NOSIG RMK QFE683/0911

Hora: 15:41 (10:41 UTC)

Previsão

O boletim foi feito há 1 hora e 41 minutos, às 09:00 UTC
Previsão válida de 20 às 10 UTC a 20 às 22 UTC
Vento 4 kt com direcção variável
Visibilidade: 6000 m
Poucas nuvensa uma altura de 6600 ft, Cumulonimbus.
Nuvens dispersasa uma altura de 15000 ft
Temporariamente
de 20 às 10 UTC a 20 às 16 UTC
Vento 10 kt de oeste

TAF: UTDD 200900Z 2010/2022 VRB02MPS 6000 FEW066CB SCT150 TEMPO 2010/2016 27005MPS

Observações e previsões do tempo de mais de 4000 aeroportos (mensagens METAR e TAF).

As estações disponíveis são os pontos amarelos e vermelhos sobre o mapa.

Mova o rato sobre o mapa para ver o nome da estação.

Depois clique no ponto para visualizar as observações e previsões meteorológicas.

Para alterar o mapa : clique nos botões verdes com uma cruz preta para aumentar o zoom; no botão verde com uma pitada de zoom; ou nas setas verdes para mapas adjacentes.


METAR-TAF: